createdAt,value
2018-06-27T00:01:35.046Z,87.10
2018-06-27T00:04:03.378Z,87.20
2018-06-27T00:06:31.725Z,87.20
2018-06-27T00:09:00.063Z,87.00
2018-06-27T00:11:28.419Z,86.90
2018-06-27T00:13:56.753Z,86.90
2018-06-27T00:16:25.115Z,87.00
2018-06-27T00:18:53.550Z,87.10
2018-06-27T00:21:21.888Z,87.30
2018-06-27T00:23:50.240Z,87.30
2018-06-27T00:26:18.585Z,87.10
2018-06-27T00:28:46.907Z,87.90
2018-06-27T00:31:15.256Z,88.40
2018-06-27T00:33:43.579Z,88.60
2018-06-27T00:36:11.928Z,88.50
2018-06-27T00:38:40.267Z,88.40
2018-06-27T00:41:08.607Z,88.60
2018-06-27T00:43:36.945Z,88.60
2018-06-27T00:46:05.298Z,88.70
2018-06-27T00:48:33.629Z,88.60
2018-06-27T00:51:01.990Z,89.60
2018-06-27T00:53:30.339Z,88.50
2018-06-27T00:55:58.680Z,88.40
2018-06-27T00:58:27.010Z,88.60
2018-06-27T01:00:55.352Z,88.80
2018-06-27T01:03:23.689Z,88.80
2018-06-27T01:05:52.026Z,88.80
2018-06-27T01:08:20.353Z,88.90
2018-06-27T01:10:48.701Z,89.00
2018-06-27T01:13:17.033Z,89.10
2018-06-27T01:15:45.380Z,89.20
2018-06-27T01:18:13.714Z,89.20
2018-06-27T01:20:42.065Z,89.20
2018-06-27T01:23:10.389Z,89.10
2018-06-27T01:25:38.742Z,89.00
2018-06-27T01:28:07.064Z,89.10
2018-06-27T01:30:35.404Z,89.20
2018-06-27T01:33:03.734Z,89.20
2018-06-27T01:35:32.079Z,89.10
2018-06-27T01:38:00.393Z,89.10
2018-06-27T01:40:28.742Z,89.20
2018-06-27T01:42:57.067Z,89.20
2018-06-27T01:45:25.405Z,89.20
2018-06-27T01:47:53.735Z,89.50
2018-06-27T01:50:22.080Z,89.40
2018-06-27T01:52:50.416Z,89.10
2018-06-27T01:55:18.771Z,89.40
2018-06-27T01:57:47.091Z,89.30
2018-06-27T02:00:15.418Z,89.40
2018-06-27T02:02:43.785Z,89.50
2018-06-27T02:05:12.109Z,89.40
2018-06-27T02:07:40.451Z,89.60
2018-06-27T02:10:08.770Z,89.70
2018-06-27T02:12:37.112Z,89.60
2018-06-27T02:15:05.434Z,89.70
2018-06-27T02:17:33.784Z,89.60
2018-06-27T02:20:02.114Z,89.60
2018-06-27T02:22:30.464Z,89.40
2018-06-27T02:24:58.794Z,89.60
2018-06-27T02:27:27.210Z,89.70
2018-06-27T02:29:55.514Z,89.70
2018-06-27T02:32:23.872Z,89.70
2018-06-27T02:34:52.211Z,89.70
2018-06-27T02:37:20.560Z,89.50
2018-06-27T02:39:48.931Z,89.70
2018-06-27T02:42:17.286Z,89.80
2018-06-27T02:44:45.615Z,89.90
2018-06-27T02:47:13.970Z,90.00
2018-06-27T02:49:42.367Z,89.80
2018-06-27T02:52:10.662Z,89.90
2018-06-27T02:54:39.002Z,89.90
2018-06-27T02:57:07.353Z,89.80
2018-06-27T02:59:35.686Z,89.80
2018-06-27T03:02:04.061Z,89.80
2018-06-27T03:04:32.393Z,89.70
2018-06-27T03:07:00.740Z,89.70
2018-06-27T03:09:29.071Z,89.50
2018-06-27T03:11:57.416Z,89.50
2018-06-27T03:14:25.731Z,89.80
2018-06-27T03:16:54.084Z,89.80
2018-06-27T03:19:22.410Z,89.70
2018-06-27T03:21:51.433Z,89.70
2018-06-27T03:24:19.761Z,89.60
2018-06-27T03:26:48.108Z,89.60
2018-06-27T03:29:16.439Z,89.90
2018-06-27T03:31:44.796Z,89.60
2018-06-27T03:34:13.113Z,89.60
2018-06-27T03:36:41.471Z,89.50
2018-06-27T03:39:09.798Z,89.60
2018-06-27T03:41:38.145Z,89.30
2018-06-27T03:44:06.474Z,89.00
2018-06-27T03:46:34.826Z,88.50
2018-06-27T03:49:03.153Z,88.20
2018-06-27T03:51:31.506Z,88.00
2018-06-27T03:53:59.829Z,88.80
2018-06-27T03:56:28.180Z,88.00
2018-06-27T03:58:56.578Z,87.60
2018-06-27T04:01:24.877Z,87.20
2018-06-27T04:03:53.222Z,87.70
2018-06-27T04:06:21.557Z,87.50
2018-06-27T04:08:49.909Z,85.20
2018-06-27T04:11:18.230Z,82.20
2018-06-27T04:13:46.581Z,78.90
2018-06-27T04:16:14.908Z,75.80
2018-06-27T04:18:43.255Z,72.70
2018-06-27T04:21:11.577Z,69.70
2018-06-27T04:23:39.937Z,67.60
2018-06-27T04:26:08.259Z,67.00
2018-06-27T04:28:36.640Z,67.50
2018-06-27T04:31:04.962Z,67.50
2018-06-27T04:33:33.314Z,68.50
2018-06-27T04:36:01.713Z,67.30
2018-06-27T04:38:30.016Z,65.20
2018-06-27T04:40:58.340Z,62.70
2018-06-27T04:43:26.683Z,60.80
2018-06-27T04:45:55.011Z,59.10
2018-06-27T04:48:23.358Z,58.10
2018-06-27T04:50:51.669Z,57.20
2018-06-27T04:53:20.008Z,56.40
2018-06-27T04:55:48.338Z,56.00
2018-06-27T04:58:16.677Z,55.20
2018-06-27T05:00:44.992Z,54.50
2018-06-27T05:03:13.343Z,54.30
2018-06-27T05:05:41.667Z,54.30
2018-06-27T05:08:10.012Z,54.10
2018-06-27T05:10:38.330Z,53.70
2018-06-27T05:13:06.668Z,54.00
2018-06-27T05:15:34.998Z,54.80
2018-06-27T05:18:03.344Z,54.40
2018-06-27T05:20:31.661Z,55.20
2018-06-27T05:23:00.018Z,56.50
2018-06-27T05:25:28.338Z,57.60
2018-06-27T05:27:56.692Z,58.80
2018-06-27T05:30:25.014Z,59.90
2018-06-27T05:32:53.361Z,61.00
2018-06-27T05:35:21.680Z,61.80
2018-06-27T05:37:49.235Z,61.80
2018-06-27T05:40:17.584Z,63.30
2018-06-27T05:42:45.922Z,64.00
2018-06-27T05:45:14.259Z,64.40
2018-06-27T05:47:42.577Z,64.60
2018-06-27T05:50:10.922Z,64.90
2018-06-27T05:52:39.253Z,65.20
2018-06-27T05:55:07.589Z,65.30
2018-06-27T05:57:35.920Z,65.50
2018-06-27T06:00:04.257Z,66.10
2018-06-27T06:02:32.581Z,65.90
2018-06-27T06:05:00.940Z,66.30
2018-06-27T06:07:29.264Z,67.10
2018-06-27T06:09:57.636Z,66.30
2018-06-27T06:12:25.950Z,66.00
2018-06-27T06:14:54.292Z,65.90
2018-06-27T06:17:22.622Z,65.90
2018-06-27T06:19:51.025Z,65.90
2018-06-27T06:22:19.358Z,65.80
2018-06-27T06:24:47.781Z,65.50
2018-06-27T06:27:16.257Z,65.90
2018-06-27T06:29:44.725Z,64.90
2018-06-27T06:32:13.132Z,64.90
2018-06-27T06:34:42.164Z,64.80
2018-06-27T06:37:10.587Z,64.60
2018-06-27T06:39:38.936Z,64.50
2018-06-27T06:42:07.262Z,64.40
2018-06-27T06:44:35.600Z,64.50
2018-06-27T06:47:03.916Z,64.30
2018-06-27T06:49:32.258Z,63.90
2018-06-27T06:52:00.585Z,63.30
2018-06-27T06:54:28.928Z,63.00
2018-06-27T06:56:57.261Z,63.10
2018-06-27T06:59:25.606Z,62.80
2018-06-27T07:01:53.926Z,62.70
2018-06-27T07:04:22.265Z,62.40
2018-06-27T07:06:50.609Z,62.10
2018-06-27T07:09:18.991Z,61.90
2018-06-27T07:11:47.339Z,61.70
2018-06-27T07:14:15.760Z,61.50
2018-06-27T07:16:44.195Z,61.20
2018-06-27T07:19:11.946Z,61.10
2018-06-27T07:21:40.352Z,60.10
2018-06-27T07:24:08.744Z,60.00
2018-06-27T07:26:37.093Z,61.10
2018-06-27T07:29:05.411Z,60.30
2018-06-27T07:31:33.756Z,59.90
2018-06-27T07:34:02.085Z,59.30
2018-06-27T07:36:30.426Z,59.20
2018-06-27T07:38:58.755Z,59.00
2018-06-27T07:41:27.103Z,59.10
2018-06-27T07:43:55.425Z,58.80
2018-06-27T07:46:23.773Z,59.00
2018-06-27T07:48:52.107Z,58.80
2018-06-27T07:51:19.733Z,58.80
2018-06-27T07:53:48.069Z,57.40
2018-06-27T07:56:16.451Z,57.20
2018-06-27T07:58:44.850Z,56.90
2018-06-27T08:01:13.409Z,56.50
2018-06-27T08:03:41.908Z,56.30
2018-06-27T08:06:10.363Z,55.50
2018-06-27T08:08:38.723Z,55.80
2018-06-27T08:11:07.069Z,56.30
2018-06-27T08:13:35.394Z,56.40
2018-06-27T08:16:03.737Z,56.00
2018-06-27T08:18:32.066Z,55.60
2018-06-27T08:21:00.422Z,54.70
2018-06-27T08:23:28.742Z,54.30
2018-06-27T08:25:57.169Z,53.80
2018-06-27T08:28:25.439Z,53.70
2018-06-27T08:30:53.030Z,53.70
2018-06-27T08:33:21.358Z,54.40
2018-06-27T08:35:49.698Z,53.70
2018-06-27T08:38:18.101Z,51.80
2018-06-27T08:40:46.661Z,51.90
2018-06-27T08:43:15.116Z,52.20
2018-06-27T08:45:43.558Z,52.30
2018-06-27T08:48:11.985Z,51.90
2018-06-27T08:50:40.394Z,51.60
2018-06-27T08:53:08.725Z,50.70
2018-06-27T08:55:37.080Z,49.70
2018-06-27T08:58:05.394Z,50.30
2018-06-27T09:00:33.739Z,50.00
2018-06-27T09:03:02.050Z,49.50
2018-06-27T09:05:30.393Z,49.80
2018-06-27T09:07:59.010Z,50.70
2018-06-27T09:10:27.560Z,50.50
2018-06-27T09:12:55.903Z,48.70
2018-06-27T09:15:26.595Z,48.50
2018-06-27T09:17:54.918Z,48.30
2018-06-27T09:20:22.485Z,48.30
2018-06-27T09:22:50.953Z,48.60
2018-06-27T09:25:19.400Z,47.80
2018-06-27T09:27:47.759Z,47.20
2018-06-27T09:30:17.236Z,46.60
2018-06-27T09:32:45.679Z,47.40
2018-06-27T09:35:14.016Z,48.00
2018-06-27T09:37:42.361Z,46.70
2018-06-27T09:40:10.699Z,46.40
2018-06-27T09:42:39.035Z,47.50
2018-06-27T09:45:07.350Z,46.30
2018-06-27T09:47:35.721Z,45.00
2018-06-27T09:50:04.051Z,45.80
2018-06-27T09:52:32.405Z,45.10
2018-06-27T09:55:00.727Z,44.60
2018-06-27T09:57:29.061Z,45.00
2018-06-27T09:59:57.403Z,45.10
2018-06-27T10:02:25.757Z,45.70
2018-06-27T10:04:54.072Z,45.30
2018-06-27T10:07:22.415Z,43.50
2018-06-27T10:09:50.753Z,43.80
2018-06-27T10:12:19.094Z,44.20
2018-06-27T10:14:47.404Z,43.30
2018-06-27T10:17:15.752Z,43.90
2018-06-27T10:19:44.089Z,44.60
2018-06-27T10:22:12.471Z,45.30
2018-06-27T10:24:40.799Z,44.20
2018-06-27T10:27:09.148Z,44.10
2018-06-27T10:29:37.474Z,44.70
2018-06-27T10:32:05.813Z,44.70
2018-06-27T10:34:34.135Z,44.20
2018-06-27T10:37:02.482Z,43.60
2018-06-27T10:39:30.793Z,40.70
2018-06-27T10:41:59.145Z,41.40
2018-06-27T10:44:27.472Z,42.10
2018-06-27T10:46:55.830Z,42.70
2018-06-27T10:49:24.150Z,40.60
2018-06-27T10:51:52.490Z,40.80
2018-06-27T10:54:20.807Z,40.80
2018-06-27T10:56:49.153Z,39.30
2018-06-27T10:59:17.479Z,39.80
2018-06-27T11:01:45.830Z,39.30
2018-06-27T11:04:14.167Z,38.50
2018-06-27T11:06:42.527Z,38.30
2018-06-27T11:09:10.844Z,39.10
2018-06-27T11:11:38.415Z,39.10
2018-06-27T11:14:06.784Z,38.70
2018-06-27T11:16:35.101Z,38.40
2018-06-27T11:19:03.425Z,37.10
2018-06-27T11:21:31.757Z,36.80
2018-06-27T11:24:00.079Z,36.90
2018-06-27T11:26:28.400Z,35.90
2018-06-27T11:28:56.741Z,36.10
2018-06-27T11:31:25.063Z,37.00
2018-06-27T11:33:53.418Z,36.30
2018-06-27T11:36:21.737Z,34.80
2018-06-27T11:38:49.375Z,34.80
2018-06-27T11:41:17.669Z,37.40
2018-06-27T11:43:46.011Z,36.20
2018-06-27T11:46:14.339Z,37.00
2018-06-27T11:48:41.924Z,37.00
2018-06-27T11:51:10.237Z,35.40
2018-06-27T11:53:38.574Z,34.80
2018-06-27T11:56:06.890Z,35.50
2018-06-27T11:58:35.228Z,35.40
2018-06-27T12:01:03.543Z,33.90
2018-06-27T12:03:31.900Z,34.20
2018-06-27T12:06:00.259Z,33.60
2018-06-27T12:08:29.088Z,34.40
2018-06-27T12:10:57.466Z,35.00
2018-06-27T12:13:25.807Z,34.10
2018-06-27T12:15:54.118Z,33.30
2018-06-27T12:18:22.464Z,33.60
2018-06-27T12:20:50.792Z,34.00
2018-06-27T12:23:19.131Z,34.60
2018-06-27T12:25:47.474Z,35.30
2018-06-27T12:28:15.800Z,33.40
2018-06-27T12:30:44.116Z,34.80
2018-06-27T12:33:12.456Z,34.40
2018-06-27T12:35:40.775Z,33.60
2018-06-27T12:38:09.118Z,34.00
2018-06-27T12:40:37.438Z,34.50
2018-06-27T12:43:05.778Z,35.00
2018-06-27T12:45:34.084Z,33.50
2018-06-27T12:48:01.661Z,33.50
2018-06-27T12:50:29.205Z,33.10
2018-06-27T12:52:57.558Z,33.50
2018-06-27T12:55:25.878Z,33.40
2018-06-27T12:57:54.219Z,31.80
2018-06-27T13:00:22.544Z,32.80
2018-06-27T13:02:50.893Z,31.60
2018-06-27T13:05:19.223Z,31.00
2018-06-27T13:07:47.558Z,31.60
2018-06-27T13:10:15.873Z,30.60
2018-06-27T13:12:44.248Z,30.40
2018-06-27T13:15:12.568Z,30.60
2018-06-27T13:17:40.915Z,30.10
2018-06-27T13:20:09.236Z,30.30
2018-06-27T13:22:37.599Z,30.00
2018-06-27T13:25:05.953Z,31.30
2018-06-27T13:27:34.277Z,31.80
2018-06-27T13:30:02.627Z,31.60
2018-06-27T13:32:30.945Z,31.40
2018-06-27T13:34:59.334Z,32.00
2018-06-27T13:37:27.618Z,31.70
2018-06-27T13:39:55.199Z,32.30
2018-06-27T13:42:23.514Z,31.90
2018-06-27T13:44:51.873Z,32.60
2018-06-27T13:47:20.185Z,33.90
2018-06-27T13:49:47.752Z,33.90
2018-06-27T13:52:16.082Z,35.10
2018-06-27T13:54:44.433Z,35.30
2018-06-27T13:57:12.743Z,35.10
2018-06-27T13:59:41.088Z,35.40
2018-06-27T14:02:09.403Z,35.80
2018-06-27T14:04:37.745Z,36.20
2018-06-27T14:07:06.069Z,36.30
2018-06-27T14:09:34.430Z,36.50
2018-06-27T14:12:02.742Z,36.80
2018-06-27T14:14:31.078Z,37.00
2018-06-27T14:16:58.634Z,37.00
2018-06-27T14:19:26.984Z,37.50
2018-06-27T14:21:55.303Z,37.60
2018-06-27T14:24:23.648Z,37.20
2018-06-27T14:26:52.016Z,36.30
2018-06-27T14:29:20.377Z,36.40
2018-06-27T14:31:48.685Z,36.80
2018-06-27T14:34:17.018Z,37.60
2018-06-27T14:36:45.343Z,38.20
2018-06-27T14:39:13.673Z,38.80
2018-06-27T14:41:42.001Z,39.20
2018-06-27T14:44:10.341Z,39.60
2018-06-27T14:46:38.649Z,40.10
2018-06-27T14:49:06.992Z,39.90
2018-06-27T14:51:35.378Z,40.10
2018-06-27T14:54:03.698Z,40.50
2018-06-27T14:56:32.044Z,41.00
2018-06-27T14:59:00.373Z,40.00
2018-06-27T15:01:28.685Z,39.50
2018-06-27T15:03:57.023Z,39.10
2018-06-27T15:06:25.335Z,38.60
2018-06-27T15:08:53.674Z,38.50
2018-06-27T15:11:22.004Z,37.90
2018-06-27T15:13:50.344Z,37.90
2018-06-27T15:16:18.677Z,36.40
2018-06-27T15:18:47.029Z,34.60
2018-06-27T15:21:15.355Z,35.30
2018-06-27T15:23:43.735Z,36.40
2018-06-27T15:26:12.035Z,36.30
2018-06-27T15:28:40.346Z,36.20
2018-06-27T15:31:08.677Z,36.10
2018-06-27T15:33:37.006Z,36.10
2018-06-27T15:36:05.354Z,35.80
2018-06-27T15:38:32.912Z,35.80
2018-06-27T15:41:01.254Z,36.50
2018-06-27T15:43:29.571Z,36.90
2018-06-27T15:45:57.915Z,36.80
2018-06-27T15:48:26.236Z,35.90
2018-06-27T15:50:54.565Z,35.00
2018-06-27T15:53:22.890Z,34.40
2018-06-27T15:55:51.243Z,35.10
2018-06-27T15:58:19.571Z,35.10
2018-06-27T16:00:47.924Z,35.20
2018-06-27T16:03:16.240Z,35.30
2018-06-27T16:05:44.575Z,34.80
2018-06-27T16:08:12.919Z,34.90
2018-06-27T16:10:41.265Z,34.70
2018-06-27T16:13:09.592Z,33.90
2018-06-27T16:15:37.937Z,34.20
2018-06-27T16:18:06.258Z,34.80
2018-06-27T16:20:34.599Z,35.20
2018-06-27T16:23:02.913Z,35.40
2018-06-27T16:25:31.258Z,35.30
2018-06-27T16:27:58.824Z,35.30
2018-06-27T16:30:27.168Z,36.10
2018-06-27T16:32:55.487Z,36.90
2018-06-27T16:35:23.072Z,36.90
2018-06-27T16:37:51.404Z,37.80
2018-06-27T16:40:19.795Z,37.30
2018-06-27T16:42:48.103Z,37.30
2018-06-27T16:45:16.445Z,37.70
2018-06-27T16:47:43.998Z,37.70
2018-06-27T16:50:12.339Z,38.60
2018-06-27T16:52:40.655Z,38.30
2018-06-27T16:55:09.028Z,38.70
2018-06-27T16:57:37.320Z,39.00
2018-06-27T17:00:05.659Z,38.80
2018-06-27T17:02:33.992Z,38.60
2018-06-27T17:05:02.338Z,38.10
2018-06-27T17:07:30.663Z,38.80
2018-06-27T17:09:59.001Z,38.70
2018-06-27T17:12:27.347Z,38.80
2018-06-27T17:14:55.709Z,38.20
2018-06-27T17:17:24.029Z,37.40
2018-06-27T17:19:52.346Z,36.40
2018-06-27T17:22:20.677Z,35.50
2018-06-27T17:24:49.016Z,34.10
2018-06-27T17:27:17.380Z,33.30
2018-06-27T17:29:45.697Z,34.00
2018-06-27T17:32:14.038Z,31.90
2018-06-27T17:34:42.348Z,31.50
2018-06-27T17:37:10.685Z,31.30
2018-06-27T17:39:38.244Z,30.60
2018-06-27T17:42:06.574Z,31.50
2018-06-27T17:44:34.908Z,31.10
2018-06-27T17:47:03.266Z,31.40
2018-06-27T17:49:31.585Z,31.00
2018-06-27T17:51:59.935Z,29.50
2018-06-27T17:54:28.258Z,29.00
2018-06-27T17:56:56.599Z,29.20
2018-06-27T17:59:24.909Z,29.20
2018-06-27T18:01:53.255Z,29.00
2018-06-27T18:04:21.570Z,28.70
2018-06-27T18:06:49.921Z,29.40
2018-06-27T18:09:18.246Z,28.70
2018-06-27T18:11:46.634Z,28.80
2018-06-27T18:14:14.992Z,29.50
2018-06-27T18:16:43.378Z,28.70
2018-06-27T18:19:11.675Z,28.10
2018-06-27T18:21:40.011Z,27.40
2018-06-27T18:24:08.316Z,27.20
2018-06-27T18:26:36.652Z,26.50
2018-06-27T18:29:05.027Z,25.40
2018-06-27T18:31:33.347Z,25.70
2018-06-27T18:34:01.659Z,25.10
2018-06-27T18:36:29.233Z,25.00
2018-06-27T18:38:57.548Z,25.50
2018-06-27T18:41:25.882Z,27.10
2018-06-27T18:43:54.204Z,28.20
2018-06-27T18:46:22.541Z,29.20
2018-06-27T18:48:50.871Z,30.30
2018-06-27T18:51:19.216Z,31.80
2018-06-27T18:53:47.526Z,33.60
2018-06-27T18:56:15.861Z,33.90
2018-06-27T18:58:44.195Z,35.20
2018-06-27T19:01:11.776Z,35.20
2018-06-27T19:03:40.094Z,36.00
2018-06-27T19:06:08.485Z,37.20
2018-06-27T19:08:36.814Z,38.60
2018-06-27T19:11:04.703Z,39.40
2018-06-27T19:13:32.555Z,40.60
2018-06-27T19:16:00.413Z,40.40
2018-06-27T19:18:27.522Z,40.30
2018-06-27T19:20:55.364Z,41.10
2018-06-27T19:23:23.242Z,41.30
2018-06-27T19:25:51.105Z,42.00
2018-06-27T19:28:19.438Z,42.50
2018-06-27T19:30:47.749Z,43.70
2018-06-27T19:33:16.098Z,44.10
2018-06-27T19:35:43.186Z,44.10
2018-06-27T19:38:11.526Z,44.70
2018-06-27T19:40:39.848Z,44.90
2018-06-27T19:43:07.718Z,45.20
2018-06-27T19:45:35.575Z,45.90
2018-06-27T19:48:02.693Z,46.00
2018-06-27T19:50:29.768Z,46.80
2018-06-27T19:52:57.642Z,47.40
2018-06-27T19:55:25.568Z,48.00
2018-06-27T19:57:53.428Z,48.30
2018-06-27T20:00:21.273Z,48.60
2018-06-27T20:02:49.605Z,49.10
2018-06-27T20:05:17.452Z,49.90
2018-06-27T20:07:45.931Z,50.00
2018-06-27T20:10:14.174Z,51.00
2018-06-27T20:12:42.101Z,51.20
2018-06-27T20:15:10.456Z,51.80
2018-06-27T20:17:38.785Z,52.10
2018-06-27T20:20:07.149Z,52.80
2018-06-27T20:22:35.493Z,53.50
2018-06-27T20:25:03.342Z,53.50
2018-06-27T20:27:31.680Z,53.50
2018-06-27T20:30:00.067Z,54.30
2018-06-27T20:32:28.403Z,55.00
2018-06-27T20:34:56.720Z,55.40
2018-06-27T20:37:25.058Z,55.30
2018-06-27T20:39:53.376Z,55.80
2018-06-27T20:42:21.714Z,56.30
2018-06-27T20:44:50.026Z,56.00
2018-06-27T20:47:18.489Z,56.20
2018-06-27T20:49:46.702Z,56.30
2018-06-27T20:52:15.061Z,56.70
2018-06-27T20:54:43.371Z,57.10
2018-06-27T20:57:11.718Z,57.00
2018-06-27T20:59:40.035Z,57.30
2018-06-27T21:02:08.369Z,57.30
2018-06-27T21:04:36.689Z,58.00
2018-06-27T21:07:05.021Z,58.60
2018-06-27T21:09:33.362Z,58.90
2018-06-27T21:12:01.686Z,59.10
2018-06-27T21:14:30.054Z,59.40
2018-06-27T21:16:58.469Z,59.70
2018-06-27T21:19:26.879Z,59.60
2018-06-27T21:21:55.184Z,59.80
2018-06-27T21:24:23.532Z,60.50
2018-06-27T21:26:51.841Z,60.00
2018-06-27T21:29:19.404Z,60.00
2018-06-27T21:31:47.721Z,61.20
2018-06-27T21:34:16.068Z,61.80
2018-06-27T21:36:44.385Z,61.90
2018-06-27T21:39:12.713Z,62.00
2018-06-27T21:41:41.037Z,62.40
2018-06-27T21:44:09.370Z,62.60
2018-06-27T21:46:37.714Z,63.40
2018-06-27T21:49:05.273Z,63.00
2018-06-27T21:51:33.583Z,63.80
2018-06-27T21:54:01.924Z,64.30
2018-06-27T21:56:30.228Z,64.70
2018-06-27T21:58:58.568Z,65.00
2018-06-27T22:01:26.885Z,65.60
2018-06-27T22:03:55.225Z,66.20
2018-06-27T22:06:23.526Z,67.10
2018-06-27T22:08:51.858Z,67.80
2018-06-27T22:11:20.167Z,68.30
2018-06-27T22:13:48.505Z,68.80
2018-06-27T22:16:16.822Z,69.30
2018-06-27T22:18:44.394Z,69.30
2018-06-27T22:21:12.700Z,70.20
2018-06-27T22:23:41.047Z,71.00
2018-06-27T22:26:09.410Z,71.30
2018-06-27T22:28:37.794Z,72.30
2018-06-27T22:31:06.145Z,71.70
2018-06-27T22:33:34.497Z,72.10
2018-06-27T22:36:02.805Z,72.20
2018-06-27T22:38:30.371Z,72.20
2018-06-27T22:40:58.683Z,72.40
2018-06-27T22:43:27.041Z,72.30
2018-06-27T22:45:55.381Z,72.50
2018-06-27T22:48:23.830Z,72.70
2018-06-27T22:50:52.148Z,72.90
2018-06-27T22:53:20.475Z,72.20
2018-06-27T22:55:48.789Z,73.20
2018-06-27T22:58:17.123Z,73.70
2018-06-27T23:00:45.447Z,73.90
2018-06-27T23:03:13.323Z,74.10
2018-06-27T23:05:41.656Z,74.60
2018-06-27T23:08:09.970Z,74.50
2018-06-27T23:10:38.305Z,74.80
2018-06-27T23:13:06.668Z,74.90
2018-06-27T23:15:34.998Z,75.10
2018-06-27T23:18:03.387Z,75.50
2018-06-27T23:20:31.810Z,75.80
2018-06-27T23:23:00.125Z,75.70
2018-06-27T23:25:28.467Z,75.90
2018-06-27T23:27:56.013Z,75.90
2018-06-27T23:30:24.353Z,76.60
2018-06-27T23:32:52.206Z,76.80
2018-06-27T23:35:20.543Z,77.00
2018-06-27T23:37:48.863Z,77.10
2018-06-27T23:40:17.205Z,77.20
2018-06-27T23:42:45.525Z,77.10
2018-06-27T23:45:13.863Z,77.50
2018-06-27T23:47:42.184Z,77.70
2018-06-27T23:50:10.524Z,77.70
2018-06-27T23:52:38.834Z,77.70
2018-06-27T23:55:07.166Z,77.60
2018-06-27T23:57:35.499Z,78.00
